createdAt,value
2018-12-23T00:00:58.966Z,21.27
2018-12-23T00:03:26.390Z,25.63
2018-12-23T00:05:53.831Z,22.23
2018-12-23T00:08:21.269Z,20.90
2018-12-23T00:10:48.691Z,23.00
2018-12-23T00:13:16.111Z,23.87
2018-12-23T00:15:43.553Z,26.50
2018-12-23T00:18:10.975Z,19.23
2018-12-23T00:20:38.397Z,21.13
2018-12-23T00:23:05.939Z,21.37
2018-12-23T00:25:33.769Z,16.27
2018-12-23T00:28:01.177Z,20.93
2018-12-23T00:30:28.678Z,19.13
2018-12-23T00:32:56.113Z,19.50
2018-12-23T00:35:23.551Z,17.47
2018-12-23T00:37:50.994Z,18.47
2018-12-23T00:40:18.419Z,22.27
2018-12-23T00:42:45.842Z,20.27
2018-12-23T00:45:13.255Z,23.70
2018-12-23T00:47:40.685Z,18.23
2018-12-23T00:50:08.207Z,22.47
2018-12-23T00:52:35.649Z,21.73
2018-12-23T00:55:03.133Z,22.47
2018-12-23T00:57:30.648Z,16.17
2018-12-23T00:59:58.075Z,23.83
2018-12-23T01:02:25.611Z,23.17
2018-12-23T01:04:53.104Z,25.80
2018-12-23T01:07:20.622Z,25.27
2018-12-23T01:09:48.042Z,24.13
2018-12-23T01:12:15.489Z,23.23
2018-12-23T01:14:42.990Z,19.03
2018-12-23T01:17:10.491Z,23.67
2018-12-23T01:19:37.975Z,20.83
2018-12-23T01:22:05.418Z,23.47
2018-12-23T01:24:32.861Z,22.23
2018-12-23T01:27:00.280Z,20.87
2018-12-23T01:29:27.783Z,23.13
2018-12-23T01:31:55.823Z,25.57
2018-12-23T01:34:23.236Z,25.20
2018-12-23T01:36:50.670Z,23.20
2018-12-23T01:39:18.119Z,21.20
2018-12-23T01:41:45.543Z,18.43
2018-12-23T01:44:13.082Z,21.60
2018-12-23T01:46:40.507Z,34.50
2018-12-23T01:49:07.939Z,28.97
2018-12-23T01:51:35.369Z,22.33
2018-12-23T01:54:02.835Z,25.97
2018-12-23T01:56:30.340Z,31.10
2018-12-23T01:58:57.771Z,29.13
2018-12-23T02:01:25.239Z,22.60
2018-12-23T02:03:52.669Z,28.43
2018-12-23T02:06:20.090Z,27.63
2018-12-23T02:08:47.510Z,25.67
2018-12-23T02:11:14.936Z,24.63
2018-12-23T02:13:42.379Z,26.30
2018-12-23T02:16:09.797Z,23.07
2018-12-23T02:18:37.227Z,22.17
2018-12-23T02:21:04.748Z,24.20
2018-12-23T02:23:32.167Z,24.10
2018-12-23T02:25:59.598Z,23.57
2018-12-23T02:28:27.027Z,23.03
2018-12-23T02:30:54.440Z,22.17
2018-12-23T02:33:22.028Z,26.03
2018-12-23T02:35:55.388Z,30.50
2018-12-23T02:38:18.998Z,28.13
2018-12-23T02:40:46.499Z,26.17
2018-12-23T02:43:13.990Z,23.27
2018-12-23T02:45:41.580Z,38.23
2018-12-23T02:48:09.087Z,29.43
2018-12-23T02:50:36.524Z,24.57
2018-12-23T02:53:03.996Z,29.33
2018-12-23T02:55:31.572Z,33.57
2018-12-23T02:57:58.991Z,34.83
2018-12-23T03:00:26.477Z,27.97
2018-12-23T03:02:53.949Z,32.43
2018-12-23T03:05:21.447Z,28.30
2018-12-23T03:07:48.878Z,37.23
2018-12-23T03:10:16.300Z,24.77
2018-12-23T03:12:43.748Z,30.50
2018-12-23T03:15:11.307Z,32.87
2018-12-23T03:17:38.759Z,39.27
2018-12-23T03:20:06.468Z,30.60
2018-12-23T03:22:33.955Z,26.97
2018-12-23T03:25:01.380Z,33.23
2018-12-23T03:27:28.897Z,33.33
2018-12-23T03:29:56.324Z,31.83
2018-12-23T03:32:23.868Z,26.37
2018-12-23T03:34:51.386Z,27.13
2018-12-23T03:37:18.822Z,30.20
2018-12-23T03:39:46.315Z,28.07
2018-12-23T03:42:14.637Z,31.50
2018-12-23T03:44:42.059Z,27.80
2018-12-23T03:47:09.505Z,32.07
2018-12-23T03:49:36.945Z,33.47
2018-12-23T03:52:04.383Z,29.20
2018-12-23T03:54:31.895Z,31.47
2018-12-23T03:56:59.428Z,27.17
2018-12-23T03:59:26.928Z,29.67
2018-12-23T04:01:54.364Z,30.13
2018-12-23T04:04:21.792Z,32.73
2018-12-23T04:06:49.364Z,26.87
2018-12-23T04:09:16.843Z,35.20
2018-12-23T04:11:44.282Z,31.53
2018-12-23T04:14:11.772Z,31.80
2018-12-23T04:16:39.287Z,28.17
2018-12-23T04:19:06.735Z,40.43
2018-12-23T04:21:34.222Z,34.23
2018-12-23T04:24:01.721Z,36.00
2018-12-23T04:26:29.235Z,37.07
2018-12-23T04:28:56.735Z,30.97
2018-12-23T04:31:24.147Z,35.00
2018-12-23T04:33:51.611Z,39.83
2018-12-23T04:36:19.074Z,35.17
2018-12-23T04:38:46.518Z,37.67
2018-12-23T04:41:14.099Z,36.80
2018-12-23T04:43:41.523Z,37.43
2018-12-23T04:46:08.944Z,31.40
2018-12-23T04:48:36.474Z,33.80
2018-12-23T04:51:03.997Z,34.97
2018-12-23T04:53:31.494Z,35.67
2018-12-23T04:55:59.049Z,37.67
2018-12-23T04:58:26.555Z,33.73
2018-12-23T05:00:54.006Z,40.00
2018-12-23T05:03:21.441Z,39.43
2018-12-23T05:05:48.868Z,39.87
2018-12-23T05:08:16.385Z,31.17
2018-12-23T05:10:43.893Z,30.87
2018-12-23T05:13:11.391Z,37.93
2018-12-23T05:15:38.808Z,34.77
2018-12-23T05:18:06.324Z,27.93
2018-12-23T05:20:33.782Z,30.67
2018-12-23T05:23:01.278Z,39.40
2018-12-23T05:25:28.712Z,33.03
2018-12-23T05:27:56.160Z,31.07
2018-12-23T05:30:23.654Z,30.90
2018-12-23T05:32:51.206Z,28.20
2018-12-23T05:35:18.718Z,31.80
2018-12-23T05:37:46.209Z,29.00
2018-12-23T05:40:13.717Z,35.23
2018-12-23T05:42:41.179Z,29.30
2018-12-23T05:45:08.637Z,26.17
2018-12-23T05:47:36.131Z,32.27
2018-12-23T05:50:03.764Z,29.27
2018-12-23T05:52:31.195Z,35.40
2018-12-23T05:54:58.729Z,33.67
2018-12-23T05:57:26.237Z,31.63
2018-12-23T05:59:53.678Z,28.83
2018-12-23T06:02:21.142Z,31.03
2018-12-23T06:04:48.574Z,26.53
2018-12-23T06:07:16.002Z,36.40
2018-12-23T06:09:43.424Z,36.50
2018-12-23T06:12:10.847Z,28.13
2018-12-23T06:14:38.263Z,29.70
2018-12-23T06:17:05.689Z,31.80
2018-12-23T06:19:33.192Z,32.87
2018-12-23T06:22:00.661Z,33.10
2018-12-23T06:24:28.092Z,31.07
2018-12-23T06:26:55.620Z,34.47
2018-12-23T06:29:23.034Z,28.07
2018-12-23T06:31:50.460Z,28.67
2018-12-23T06:34:17.936Z,33.03
2018-12-23T06:36:45.446Z,30.63
2018-12-23T06:39:12.944Z,33.13
2018-12-23T06:41:40.447Z,33.07
2018-12-23T06:44:07.872Z,28.10
2018-12-23T06:46:35.302Z,28.00
2018-12-23T06:49:02.734Z,24.53
2018-12-23T06:51:30.154Z,27.70
2018-12-23T06:53:57.791Z,26.50
2018-12-23T06:56:25.228Z,28.00
2018-12-23T06:58:52.653Z,27.83
2018-12-23T07:01:20.091Z,30.80
2018-12-23T07:03:47.519Z,24.37
2018-12-23T07:06:14.993Z,27.17
2018-12-23T07:08:42.438Z,30.87
2018-12-23T07:11:09.862Z,25.77
2018-12-23T07:13:37.434Z,25.17
2018-12-23T07:16:04.928Z,25.13
2018-12-23T07:18:32.357Z,25.80
2018-12-23T07:20:59.842Z,22.57
2018-12-23T07:23:27.284Z,27.00
2018-12-23T07:25:54.819Z,24.30
2018-12-23T07:28:22.435Z,26.10
2018-12-23T07:30:49.851Z,27.60
2018-12-23T07:33:17.457Z,23.23
2018-12-23T07:35:44.898Z,23.10
2018-12-23T07:38:12.332Z,23.13
2018-12-23T07:40:39.848Z,31.37
2018-12-23T07:43:07.290Z,22.17
2018-12-23T07:45:38.011Z,30.90
2018-12-23T07:48:05.443Z,28.43
2018-12-23T07:50:32.868Z,24.70
2018-12-23T07:53:00.283Z,24.17
2018-12-23T07:55:27.702Z,26.33
2018-12-23T07:57:55.212Z,28.77
2018-12-23T08:00:22.640Z,25.60
2018-12-23T08:02:50.059Z,24.63
2018-12-23T08:05:17.825Z,25.93
2018-12-23T08:07:45.436Z,23.20
2018-12-23T08:10:12.851Z,25.97
2018-12-23T08:12:40.267Z,33.40
2018-12-23T08:15:07.683Z,20.97
2018-12-23T08:17:35.123Z,22.10
2018-12-23T08:20:02.592Z,23.73
2018-12-23T08:22:30.090Z,25.57
2018-12-23T08:28:31.549Z,22.10
2018-12-23T08:31:00.058Z,25.83
2018-12-23T08:33:28.566Z,21.70
2018-12-23T08:35:58.646Z,23.17
2018-12-23T08:38:28.564Z,25.47
2018-12-23T08:40:57.074Z,29.17
2018-12-23T08:43:25.580Z,26.37
2018-12-23T08:45:55.508Z,30.47
2018-12-23T08:48:28.464Z,24.13
2018-12-23T08:51:08.575Z,23.87
2018-12-23T08:54:12.062Z,26.53
2018-12-23T08:56:43.412Z,22.63
2018-12-23T09:04:30.763Z,26.07
2018-12-23T09:07:21.674Z,26.57
2018-12-23T09:09:50.279Z,25.70
2018-12-23T09:12:18.772Z,27.43
2018-12-23T09:14:47.373Z,26.13
2018-12-23T09:19:53.284Z,26.80
2018-12-23T09:22:21.795Z,21.80
2018-12-23T09:24:50.285Z,28.33
2018-12-23T09:27:18.806Z,25.43
2018-12-23T09:29:47.583Z,28.50
2018-12-23T09:32:16.088Z,25.03
2018-12-23T09:34:46.170Z,23.00
2018-12-23T09:37:14.660Z,28.70
2018-12-23T09:39:43.184Z,22.80
2018-12-23T09:42:11.704Z,27.00
2018-12-23T09:44:40.196Z,24.70
2018-12-23T09:47:11.657Z,26.57
2018-12-23T09:49:40.187Z,27.53
2018-12-23T09:52:08.689Z,20.87
2018-12-23T09:54:37.204Z,18.97
2018-12-23T09:57:05.738Z,23.10
2018-12-23T09:59:35.784Z,18.00
2018-12-23T10:02:04.304Z,23.80
2018-12-23T10:04:32.859Z,19.30
2018-12-23T10:07:01.356Z,21.73
2018-12-23T10:09:29.876Z,22.43
2018-12-23T10:11:58.385Z,18.40
2018-12-23T10:14:26.902Z,20.83
2018-12-23T10:16:55.446Z,23.53
2018-12-23T10:19:23.935Z,17.77
2018-12-23T10:21:52.436Z,21.90
2018-12-23T10:24:20.966Z,18.63
2018-12-23T10:26:49.478Z,21.57
2018-12-23T10:29:17.992Z,17.37
2018-12-23T10:31:46.493Z,15.20
2018-12-23T10:34:14.997Z,14.97
2018-12-23T10:36:43.522Z,18.60
2018-12-23T10:39:12.020Z,20.70
2018-12-23T10:41:40.516Z,15.63
2018-12-23T10:44:09.033Z,23.67
2018-12-23T10:46:37.540Z,18.13
2018-12-23T10:49:06.047Z,19.50
2018-12-23T10:51:34.554Z,15.97
2018-12-23T10:54:03.067Z,18.53
2018-12-23T10:56:31.576Z,26.40
2018-12-23T10:59:00.068Z,18.37
2018-12-23T11:01:28.581Z,17.20
2018-12-23T11:03:57.124Z,18.10
2018-12-23T11:06:25.631Z,17.90
2018-12-23T11:08:54.186Z,17.47
2018-12-23T11:11:22.713Z,21.63
2018-12-23T11:13:51.260Z,24.87
2018-12-23T11:16:19.760Z,18.03
2018-12-23T11:18:48.285Z,16.77
2018-12-23T11:21:16.867Z,17.17
2018-12-23T11:23:45.403Z,17.83
2018-12-23T11:26:13.947Z,19.93
2018-12-23T11:28:42.444Z,20.40
2018-12-23T11:31:10.971Z,16.63
2018-12-23T11:33:39.535Z,22.10
2018-12-23T11:36:09.831Z,24.80
2018-12-23T11:38:38.339Z,21.33
2018-12-23T11:41:06.853Z,16.83
2018-12-23T11:43:35.386Z,19.90
2018-12-23T11:46:03.884Z,22.50
2018-12-23T11:48:32.397Z,20.70
2018-12-23T11:51:00.896Z,18.43
2018-12-23T11:53:29.415Z,19.03
2018-12-23T11:55:57.917Z,16.30
2018-12-23T11:58:26.411Z,20.40
2018-12-23T12:00:54.934Z,19.70
